Time;durP1;ratioP1;P1;durP2;ratioP2;P2;SDS_P1;SDS_P2;PMS_P1;PMS_P2;Temp;Humidity;BMP_temperature;BMP_pressure;BME280_temperature;BME280_humidity;BME280_pressure;Samples;Min_cycle;Max_cycle;Signal;HPM_P1;HPM_P2
2024/01/10 00:01:20;;;;;;;0.40;0.40;;;;;;;-4.13;100.00;102313.81;5030125;28;20143;-87
2024/01/10 00:03:46;;;;;;;0.60;0.60;;;;;;;-4.11;100.00;102335.38;5025136;28;20041;-83
2024/01/10 00:06:12;;;;;;;0.50;0.50;;;;;;;-4.10;100.00;102326.94;5026252;28;20425;-85
2024/01/10 00:08:38;;;;;;;0.47;0.47;;;;;;;-3.97;100.00;102318.66;5027630;28;20049;-83
2024/01/10 00:11:04;;;;;;;2.25;2.17;;;;;;;-3.92;100.00;102313.94;5017061;28;20489;-84
2024/01/10 00:13:33;;;;;;;0.40;0.40;;;;;;;-4.41;100.00;102217.31;5026138;28;20021;-82
2024/01/10 00:15:59;;;;;;;0.40;0.40;;;;;;;-3.63;100.00;102352.41;5024888;28;20049;-82
2024/01/10 00:18:25;;;;;;;3.22;3.03;;;;;;;-3.75;100.00;102344.53;5019452;28;20060;-81
2024/01/10 00:20:55;;;;;;;0.30;0.30;;;;;;;-4.01;100.00;102313.13;5029894;28;20061;-83
2024/01/10 00:23:21;;;;;;;0.32;0.32;;;;;;;-4.05;100.00;102343.63;5023994;28;20561;-84
2024/01/10 00:25:47;;;;;;;0.30;0.30;;;;;;;-3.77;100.00;102373.38;5040370;28;20032;-84
2024/01/10 00:28:13;;;;;;;2.20;2.10;;;;;;;-4.22;100.00;102283.91;5034919;28;20037;-85
2024/01/10 00:30:39;;;;;;;2.38;2.28;;;;;;;-3.74;100.00;102363.41;5025949;28;20513;-82
2024/01/10 00:33:05;;;;;;;0.32;0.32;;;;;;;-4.27;100.00;102274.16;5023067;28;20164;-85
2024/01/10 00:35:31;;;;;;;0.40;0.40;;;;;;;-3.88;100.00;102342.56;5023248;28;20068;-83
2024/01/10 00:37:56;;;;;;;0.30;0.30;;;;;;;-4.13;100.00;102330.88;5031044;28;20045;-82
2024/01/10 00:40:22;;;;;;;0.30;0.30;;;;;;;-4.55;100.00;102252.84;5018891;28;20033;-83
2024/01/10 00:42:48;;;;;;;0.40;0.40;;;;;;;-4.04;100.00;102322.34;5037426;28;20045;-84
2024/01/10 00:45:14;;;;;;;0.43;0.43;;;;;;;-4.50;100.00;102231.09;5036904;28;20097;-83
2024/01/10 00:47:39;;;;;;;0.30;0.30;;;;;;;-5.71;100.00;102005.25;5022472;28;20046;-86
2024/01/10 00:50:06;;;;;;;0.82;0.82;;;;;;;-4.47;100.00;102235.63;5003888;28;20199;-84
2024/01/10 00:52:31;;;;;;;0.70;0.50;;;;;;;-4.57;100.00;102264.59;5012058;28;20059;-85
2024/01/10 00:54:57;;;;;;;9.52;8.98;;;;;;;-3.80;100.00;102348.38;5035446;28;20075;-79
2024/01/10 00:57:24;;;;;;;2.75;1.85;;;;;;;-4.31;100.00;102266.97;5027968;28;20053;-87
2024/01/10 00:59:49;;;;;;;0.30;0.30;;;;;;;-4.11;100.00;102313.97;5019128;28;20060;-85
2024/01/10 01:02:15;;;;;;;0.40;0.40;;;;;;;-4.04;100.00;102347.09;5019525;28;20178;-84
2024/01/10 01:04:40;;;;;;;0.50;0.50;;;;;;;-4.58;100.00;102242.31;5023509;28;20025;-83
2024/01/10 01:07:06;;;;;;;0.52;0.52;;;;;;;-5.06;100.00;102151.72;5017192;28;20076;-84
2024/01/10 01:09:33;;;;;;;0.75;0.75;;;;;;;-4.49;100.00;102258.53;5017135;28;20056;-83
2024/01/10 01:11:59;;;;;;;2.25;2.15;;;;;;;-4.29;100.00;102351.66;5019783;28;20765;-83
2024/01/10 01:14:26;;;;;;;0.40;0.40;;;;;;;-4.36;100.00;102263.06;5021970;28;20068;-84
2024/01/10 01:16:53;;;;;;;0.32;0.32;;;;;;;-4.13;100.00;102295.88;5006589;28;20038;-80
2024/01/10 01:19:18;;;;;;;0.40;0.40;;;;;;;-4.72;100.00;102169.38;5017117;28;20045;-84
2024/01/10 01:21:44;;;;;;;0.70;0.70;;;;;;;-4.11;100.00;102298.59;5022306;28;20073;-82
2024/01/10 01:24:09;;;;;;;0.52;0.52;;;;;;;-4.25;100.00;102272.63;5016943;28;20053;-83
2024/01/10 01:26:35;;;;;;;0.73;0.73;;;;;;;-4.35;100.00;102282.81;5018314;28;20041;-84
2024/01/10 01:29:00;;;;;;;1.40;1.30;;;;;;;-3.92;100.00;102335.34;5001394;28;20064;-82
2024/01/10 01:31:26;;;;;;;1.00;1.00;;;;;;;-4.13;100.00;102313.81;5029484;28;20048;-83
2024/01/10 01:33:51;;;;;;;1.33;1.10;;;;;;;-4.69;100.00;102204.59;5024621;28;20074;-87
2024/01/10 01:36:17;;;;;;;6.30;5.72;;;;;;;-4.53;100.00;102210.34;5018830;28;20060;-86
2024/01/10 01:38:43;;;;;;;0.40;0.40;;;;;;;-4.63;100.00;102209.38;5027897;28;20128;-84
2024/01/10 01:41:09;;;;;;;0.45;0.45;;;;;;;-4.67;100.00;102180.91;5023138;28;20512;-86
2024/01/10 01:43:35;;;;;;;0.50;0.50;;;;;;;-4.34;100.00;102253.88;5031348;28;20029;-84
2024/01/10 01:46:03;;;;;;;0.40;0.40;;;;;;;-4.03;100.00;102287.34;5026860;28;20095;-85
2024/01/10 01:48:29;;;;;;;3.00;2.80;;;;;;;-4.31;100.00;102254.16;5028495;28;20041;-81
2024/01/10 01:51:00;;;;;;;3.85;3.65;;;;;;;-4.67;100.00;102173.25;5022685;28;20819;-78
2024/01/10 01:53:28;;;;;;;1.80;1.70;;;;;;;-4.04;100.00;102293.25;5030961;28;20038;-83
2024/01/10 01:55:54;;;;;;;1.88;1.75;;;;;;;-4.03;100.00;102295.03;5020374;28;20041;-83
2024/01/10 01:58:22;;;;;;;0.30;0.30;;;;;;;-4.98;100.00;102177.28;5010846;28;20124;-82
2024/01/10 02:00:49;;;;;;;0.40;0.40;;;;;;;-4.95;100.00;102192.00;5031733;28;20057;-80
2024/01/10 02:03:15;;;;;;;0.63;0.63;;;;;;;-4.03;100.00;102289.91;5040686;28;20753;-79
2024/01/10 02:05:41;;;;;;;0.60;0.55;;;;;;;-4.64;100.00;102179.41;5010931;28;20042;-80
2024/01/10 02:08:08;;;;;;;2.80;2.70;;;;;;;-4.23;100.00;102275.34;5030867;28;20045;-80
2024/01/10 02:10:34;;;;;;;0.45;0.40;;;;;;;-4.89;100.00;102156.72;5024368;28;20032;-79
2024/01/10 02:13:00;;;;;;;0.40;0.40;;;;;;;-4.66;100.00;102209.97;5025911;28;20925;-82
2024/01/10 02:15:27;;;;;;;0.50;0.50;;;;;;;-4.08;100.00;102284.38;5028687;28;20045;-81
2024/01/10 02:17:52;;;;;;;0.57;0.57;;;;;;;-4.04;100.00;102283.88;4991147;28;20043;-83
2024/01/10 02:20:18;;;;;;;5.35;5.15;;;;;;;-4.10;100.00;102270.56;5020338;28;20357;-85
2024/01/10 02:22:44;;;;;;;1.90;1.80;;;;;;;-4.05;100.00;102261.59;5041669;28;20124;-83
2024/01/10 02:25:12;;;;;;;0.38;0.38;;;;;;;-4.64;100.00;102153.78;5019457;28;20111;-86
2024/01/10 02:27:39;;;;;;;0.40;0.40;;;;;;;-4.68;100.00;102144.94;5006613;28;20061;-86
2024/01/10 02:30:05;;;;;;;0.50;0.50;;;;;;;-4.07;100.00;102275.94;5036799;28;20061;-83
2024/01/10 02:32:31;;;;;;;4.10;3.90;;;;;;;-4.80;100.00;102136.16;5037487;28;20055;-80
2024/01/10 02:34:58;;;;;;;1.63;1.52;;;;;;;-4.75;100.00;102127.25;5031260;28;20049;-83
2024/01/10 02:37:23;;;;;;;1.50;1.45;;;;;;;-3.93;100.00;102256.66;5042988;28;20026;-84
2024/01/10 02:39:49;;;;;;;0.40;0.40;;;;;;;-4.70;100.00;102149.03;5041080;28;20512;-82
2024/01/10 02:42:17;;;;;;;0.60;0.60;;;;;;;-4.05;100.00;102271.84;5027120;28;20065;-87
2024/01/10 02:44:43;;;;;;;0.30;0.30;;;;;;;-4.23;100.00;102213.84;5026608;28;20072;-85
2024/01/10 02:47:09;;;;;;;0.88;0.88;;;;;;;-4.12;100.00;102222.44;5022684;28;20148;-86
2024/01/10 02:49:35;;;;;;;0.38;0.38;;;;;;;-3.90;100.00;102253.44;5034735;28;20052;-86
2024/01/10 02:52:00;;;;;;;0.57;0.57;;;;;;;-4.68;100.00;102129.59;5029947;28;20037;-86
2024/01/10 02:54:26;;;;;;;0.55;0.55;;;;;;;-4.50;100.00;102151.69;5027744;28;20080;-84
2024/01/10 02:56:51;;;;;;;0.80;0.80;;;;;;;-4.13;100.00;102223.22;5028739;28;20417;-83
2024/01/10 02:59:17;;;;;;;0.30;0.30;;;;;;;-3.94;100.00;102284.69;5029326;28;20125;-85
2024/01/10 03:01:43;;;;;;;0.50;0.50;;;;;;;-4.21;100.00;102224.19;5036202;28;20645;-85
2024/01/10 03:04:08;;;;;;;0.40;0.40;;;;;;;-4.05;100.00;102246.22;5028792;28;20136;-84
2024/01/10 03:06:34;;;;;;;0.82;0.82;;;;;;;-4.26;100.00;102221.25;5026676;28;20041;-84
2024/01/10 03:08:59;;;;;;;2.80;2.70;;;;;;;-4.61;100.00;102152.41;5031240;28;20056;-84
2024/01/10 03:11:25;;;;;;;0.40;0.30;;;;;;;-4.22;100.00;102227.53;5037081;28;20041;-82
2024/01/10 03:14:01;;;;;;;0.82;0.82;;;;;;;-3.94;100.00;102266.75;5035690;28;20508;-83
2024/01/10 03:16:27;;;;;;;6.25;5.78;;;;;;;-4.75;100.00;102151.19;5037931;28;20030;-82
2024/01/10 03:18:53;;;;;;;0.85;0.85;;;;;;;-4.97;100.00;102125.31;5020991;28;20038;-84
2024/01/10 03:21:24;;;;;;;1.75;1.58;;;;;;;-4.46;100.00;102224.59;5036407;28;20037;-83
2024/01/10 03:24:01;;;;;;;2.70;2.50;;;;;;;-4.03;100.00;102279.66;5031442;28;20803;-82
2024/01/10 03:26:28;;;;;;;1.02;1.00;;;;;;;-4.52;100.00;102181.41;5015881;28;20048;-81
2024/01/10 03:28:53;;;;;;;1.35;1.25;;;;;;;-4.79;100.00;102164.47;5030214;28;20493;-83
2024/01/10 03:31:20;;;;;;;0.40;0.40;;;;;;;-4.67;100.00;102167.22;5028668;28;20034;-83
2024/01/10 03:33:45;;;;;;;2.72;2.60;;;;;;;-4.32;100.00;102252.34;5030403;28;20071;-82
2024/01/10 03:36:16;;;;;;;0.60;0.60;;;;;;;-4.32;100.00;102249.78;5029531;28;20475;-83
2024/01/10 03:38:42;;;;;;;2.35;2.25;;;;;;;-4.16;100.00;102277.69;5038927;28;20098;-82
2024/01/10 03:41:07;;;;;;;0.40;0.40;;;;;;;-4.67;100.00;102196.28;5014059;28;20437;-82
2024/01/10 03:43:33;;;;;;;0.60;0.60;;;;;;;-4.25;100.00;102238.41;5022881;28;20471;-81
2024/01/10 03:45:58;;;;;;;53.47;15.90;;;;;;;-4.30;100.00;102252.50;5023931;28;20515;-84
2024/01/10 03:48:24;;;;;;;5.28;4.97;;;;;;;-4.78;100.00;102157.69;5025723;28;20071;-83
2024/01/10 03:50:50;;;;;;;0.60;0.60;;;;;;;-4.30;100.00;102255.94;5027218;28;20095;-84
2024/01/10 03:53:15;;;;;;;0.68;0.68;;;;;;;-4.77;100.00;102190.22;5037882;28;20460;-84
2024/01/10 03:55:41;;;;;;;0.60;0.60;;;;;;;-4.34;100.00;102269.22;5027608;28;20029;-81
2024/01/10 03:58:06;;;;;;;12.27;6.65;;;;;;;-4.99;100.00;102142.19;5027630;28;20497;-82
2024/01/10 04:00:32;;;;;;;0.40;0.40;;;;;;;-4.80;100.00;102159.19;5024384;28;20637;-83
2024/01/10 04:02:57;;;;;;;2.78;2.67;;;;;;;-4.91;100.00;102128.44;5025396;28;20034;-83
2024/01/10 04:05:25;;;;;;;0.60;0.60;;;;;;;-4.37;100.00;102216.84;5029308;28;20507;-84
2024/01/10 04:07:51;;;;;;;3.38;1.73;;;;;;;-4.47;100.00;102216.00;5020756;28;20116;-80
2024/01/10 04:10:19;;;;;;;0.40;0.40;;;;;;;-4.27;100.00;102243.41;5027363;28;20036;-81
2024/01/10 04:12:44;;;;;;;0.80;0.77;;;;;;;-4.52;100.00;102183.97;5021673;28;20801;-82
2024/01/10 04:15:11;;;;;;;0.88;0.88;;;;;;;-4.20;100.00;102264.44;5021087;28;20052;-80
2024/01/10 04:17:37;;;;;;;18.17;11.07;;;;;;;-4.93;100.00;102135.06;5021740;28;20133;-82
2024/01/10 04:20:04;;;;;;;0.45;0.45;;;;;;;-4.30;100.00;102244.81;5024036;28;20159;-82
2024/01/10 04:22:30;;;;;;;0.95;0.95;;;;;;;-4.86;100.00;102153.53;5038030;28;20036;-85
2024/01/10 04:25:00;;;;;;;0.55;0.55;;;;;;;-4.74;100.00;102152.97;5016603;28;20731;-81
2024/01/10 04:27:27;;;;;;;0.40;0.40;;;;;;;-4.12;100.00;102255.75;5000871;28;20045;-86
2024/01/10 04:29:53;;;;;;;0.93;0.93;;;;;;;-4.18;100.00;102247.56;5013909;28;20496;-82
2024/01/10 04:32:19;;;;;;;2.13;2.03;;;;;;;-4.16;100.00;102246.94;5020096;28;20049;-82
2024/01/10 04:34:45;;;;;;;0.60;0.60;;;;;;;-4.19;100.00;102277.41;5004411;28;20799;-83
2024/01/10 04:37:12;;;;;;;6.25;5.95;;;;;;;-4.07;100.00;102273.38;5015450;28;20052;-81
2024/01/10 04:39:37;;;;;;;9.88;9.23;;;;;;;-4.09;100.00;102256.06;5018887;28;20049;-82
2024/01/10 04:42:04;;;;;;;0.57;0.57;;;;;;;-4.17;100.00;102265.59;5018426;28;20133;-84
2024/01/10 04:44:29;;;;;;;2.38;2.28;;;;;;;-4.32;100.00;102238.63;5020931;28;20045;-82
2024/01/10 04:46:55;;;;;;;13.18;12.02;;;;;;;-4.33;100.00;102219.81;5026666;28;20078;-82
2024/01/10 04:49:21;;;;;;;7.07;6.68;;;;;;;-4.17;100.00;102236.53;5028078;28;20037;-83
2024/01/10 04:51:47;;;;;;;3.83;2.38;;;;;;;-4.24;100.00;102240.19;5025012;28;20045;-84
2024/01/10 04:54:13;;;;;;;2.22;2.15;;;;;;;-4.57;100.00;102153.56;5015997;28;20055;-81
2024/01/10 04:56:38;;;;;;;0.30;0.30;;;;;;;-4.68;100.00;102161.22;5023156;28;20137;-83
2024/01/10 04:59:04;;;;;;;0.82;0.82;;;;;;;-4.01;100.00;102251.59;5025437;28;20066;-82
2024/01/10 05:01:31;;;;;;;18.30;7.18;;;;;;;-3.93;100.00;102261.78;5028103;28;20033;-82
2024/01/10 05:03:56;;;;;;;0.40;0.40;;;;;;;-5.33;100.00;102057.28;5024992;28;20398;-84
2024/01/10 05:06:23;;;;;;;0.85;0.85;;;;;;;-4.11;100.00;102253.34;5011886;28;20040;-81
2024/01/10 05:08:49;;;;;;;0.40;0.40;;;;;;;-4.19;100.00;102259.47;5025782;28;20060;-82
2024/01/10 05:11:15;;;;;;;0.73;0.73;;;;;;;-4.89;100.00;102141.38;5040474;28;20049;-81
2024/01/10 05:13:43;;;;;;;5.38;3.92;;;;;;;-4.10;100.00;102277.31;5037606;28;20036;-80
2024/01/10 05:16:08;;;;;;;1.42;1.35;;;;;;;-4.75;100.00;102147.72;5032898;28;20526;-81
2024/01/10 05:18:34;;;;;;;6.72;2.15;;;;;;;-4.71;100.00;102160.03;5019056;28;20045;-83
2024/01/10 05:21:00;;;;;;;4.22;3.90;;;;;;;-4.05;100.00;102265.78;5020559;28;20531;-85
2024/01/10 05:23:26;;;;;;;1.05;1.05;;;;;;;-4.84;100.00;102122.19;5016112;28;20049;-84
2024/01/10 05:25:51;;;;;;;1.13;1.13;;;;;;;-4.34;100.00;102248.75;5018856;28;20156;-81
2024/01/10 05:28:17;;;;;;;0.50;0.50;;;;;;;-4.10;100.00;102275.69;5017671;28;20120;-84
2024/01/10 05:30:43;;;;;;;1.65;1.55;;;;;;;-4.67;100.00;102188.59;4997763;28;20876;-82
2024/01/10 05:33:10;;;;;;;0.80;0.80;;;;;;;-4.60;100.00;102136.28;5019475;28;20038;-84
2024/01/10 05:35:38;;;;;;;0.95;0.95;;;;;;;-4.22;100.00;102207.94;5021266;28;20046;-80
2024/01/10 05:38:05;;;;;;;8.32;7.88;;;;;;;-4.22;100.00;102212.16;5003063;28;20560;-82
2024/01/10 05:40:31;;;;;;;1.65;1.58;;;;;;;-4.12;100.00;102236.19;5023408;28;20037;-84
2024/01/10 05:42:59;;;;;;;0.47;0.47;;;;;;;-4.09;100.00;102240.69;5006058;28;20052;-86
2024/01/10 05:45:25;;;;;;;13.82;11.90;;;;;;;-3.86;100.00;102270.91;5017081;28;20399;-76
2024/01/10 05:47:51;;;;;;;0.60;0.60;;;;;;;-4.70;100.00;102161.84;5017443;28;20050;-77
2024/01/10 05:50:17;;;;;;;0.68;0.68;;;;;;;-4.52;100.00;102188.16;5001934;28;20057;-76
2024/01/10 05:52:43;;;;;;;4.28;4.07;;;;;;;-4.02;100.00;102271.22;5022931;28;20037;-78
2024/01/10 05:55:09;;;;;;;10.20;9.57;;;;;;;-4.78;100.00;102147.44;5019163;28;20095;-75
2024/01/10 05:57:36;;;;;;;1.95;1.85;;;;;;;-3.97;100.00;102289.56;5014796;28;20668;-76
2024/01/10 06:00:02;;;;;;;0.43;0.43;;;;;;;-4.12;100.00;102273.72;5012059;28;20049;-77
2024/01/10 06:02:28;;;;;;;1.15;1.13;;;;;;;-4.53;100.00;102227.38;4990410;28;20533;-75
2024/01/10 06:04:54;;;;;;;1.42;1.40;;;;;;;-4.00;100.00;102281.59;5017943;28;20149;-77
2024/01/10 06:07:20;;;;;;;0.47;0.47;;;;;;;-4.35;100.00;102210.19;5020834;28;20119;-77
2024/01/10 06:09:46;;;;;;;0.40;0.40;;;;;;;-4.09;100.00;102266.31;5015183;28;20053;-76
2024/01/10 06:12:12;;;;;;;2.25;2.15;;;;;;;-4.54;100.00;102176.88;5020535;28;20056;-77
2024/01/10 06:14:38;;;;;;;2.25;2.15;;;;;;;-4.59;100.00;102180.69;5022120;28;20157;-76
2024/01/10 06:17:04;;;;;;;1.13;1.10;;;;;;;-4.67;100.00;102196.28;5022493;28;20033;-77
2024/01/10 06:19:32;;;;;;;19.13;15.85;;;;;;;-4.47;100.00;102181.81;5018196;28;20033;-77
2024/01/10 06:21:59;;;;;;;1.55;1.48;;;;;;;-3.97;100.00;102253.69;5025482;28;20487;-77
2024/01/10 06:24:25;;;;;;;4.72;4.50;;;;;;;-3.88;100.00;102304.09;5027724;28;20095;-77
2024/01/10 06:26:50;;;;;;;0.40;0.40;;;;;;;-4.46;100.00;102183.59;5017523;28;20116;-77
2024/01/10 06:29:16;;;;;;;3.30;3.20;;;;;;;-3.88;100.00;102296.41;5031816;28;20133;-77
2024/01/10 06:31:43;;;;;;;0.93;0.93;;;;;;;-4.63;100.00;102174.44;5029244;28;20040;-77
2024/01/10 06:34:08;;;;;;;4.55;4.32;;;;;;;-3.99;100.00;102273.16;5031042;28;20042;-78
2024/01/10 06:36:36;;;;;;;0.63;0.63;;;;;;;-4.06;100.00;102275.16;5030382;28;20083;-78
2024/01/10 06:39:02;;;;;;;13.43;0.85;;;;;;;-4.03;100.00;102270.31;5035852;28;20041;-77
2024/01/10 06:41:27;;;;;;;3.45;3.30;;;;;;;-4.35;100.00;102195.72;5040934;28;20048;-77
2024/01/10 06:43:53;;;;;;;2.58;2.47;;;;;;;-3.68;100.00;102294.69;5042928;28;20028;-77
2024/01/10 06:46:20;;;;;;;25.15;17.08;;;;;;;-3.72;100.00;102282.34;5027059;28;20038;-77
2024/01/10 06:48:46;;;;;;;0.60;0.60;;;;;;;-3.82;100.00;102260.13;5009338;28;20052;-77
2024/01/10 06:51:17;;;;;;;0.47;0.47;;;;;;;-3.58;100.00;102292.19;5036916;28;20076;-77
2024/01/10 06:53:43;;;;;;;6.40;6.15;;;;;;;-4.77;100.00;102134.78;5032933;28;20042;-77
2024/01/10 06:56:10;;;;;;;19.20;17.25;;;;;;;-3.72;100.00;102280.72;5032921;28;20065;-77
2024/01/10 06:58:35;;;;;;;1.10;1.10;;;;;;;-4.47;100.00;102169.91;5014043;28;20082;-76
2024/01/10 07:01:01;;;;;;;7.65;7.18;;;;;;;-3.56;100.00;102297.41;5031555;28;20135;-78
2024/01/10 07:03:27;;;;;;;18.70;16.77;;;;;;;-4.15;100.00;102176.06;5027623;28;20056;-77
2024/01/10 07:05:52;;;;;;;17.40;16.30;;;;;;;-3.64;100.00;102301.91;5011434;28;20661;-77
2024/01/10 07:08:18;;;;;;;0.47;0.47;;;;;;;-4.32;100.00;102178.03;5031651;28;20417;-76
2024/01/10 07:10:43;;;;;;;2.45;2.35;;;;;;;-4.19;100.00;102167.22;5024364;28;20480;-77
2024/01/10 07:13:10;;;;;;;1.38;1.38;;;;;;;-4.17;100.00;102183.59;5039659;28;20131;-77
2024/01/10 07:15:35;;;;;;;0.40;0.40;;;;;;;-3.39;100.00;102297.25;5024955;28;20501;-77
2024/01/10 07:18:01;;;;;;;1.60;1.50;;;;;;;-3.79;100.00;102252.72;5025150;28;20072;-76
2024/01/10 07:20:26;;;;;;;0.70;0.70;;;;;;;-4.26;100.00;102163.22;5032235;28;20072;-76
2024/01/10 07:22:52;;;;;;;0.40;0.40;;;;;;;-3.64;100.00;102256.63;5028187;28;20037;-76
2024/01/10 07:25:18;;;;;;;2.97;2.88;;;;;;;-3.46;100.00;102284.66;5032674;28;20520;-76
2024/01/10 07:27:44;;;;;;;3.00;2.80;;;;;;;-3.49;100.00;102257.06;5035346;28;20493;-77
2024/01/10 07:30:19;;;;;;;3.33;3.13;;;;;;;-3.86;100.00;102179.50;5034630;28;20060;-78
2024/01/10 07:32:46;;;;;;;1.23;1.13;;;;;;;-3.91;100.00;102184.97;5031366;28;20084;-78
2024/01/10 07:35:13;;;;;;;12.05;11.10;;;;;;;-3.81;100.00;102202.97;5027036;28;20789;-76
2024/01/10 07:37:40;;;;;;;10.95;10.25;;;;;;;-3.39;100.00;102294.66;5029697;28;20049;-78
2024/01/10 07:40:07;;;;;;;0.52;0.52;;;;;;;-3.86;100.00;102183.72;5016133;28;20060;-77
2024/01/10 07:42:34;;;;;;;3.03;2.88;;;;;;;-3.31;100.00;102300.47;5033411;28;20100;-77
2024/01/10 07:45:03;;;;;;;3.25;3.05;;;;;;;-3.61;100.00;102287.69;5013936;28;20129;-78
2024/01/10 07:47:29;;;;;;;1.50;1.45;;;;;;;-4.09;100.00;102169.81;5022653;28;20446;-77
2024/01/10 07:49:56;;;;;;;26.70;20.98;;;;;;;-3.27;100.00;102264.03;5035356;28;20037;-77
2024/01/10 07:52:21;;;;;;;0.50;0.50;;;;;;;-3.64;100.00;102205.31;5027705;28;20029;-76
2024/01/10 07:54:47;;;;;;;8.82;8.38;;;;;;;-3.05;100.00;102300.13;5025518;28;20072;-78
2024/01/10 07:57:13;;;;;;;1.65;1.55;;;;;;;-3.29;100.00;102284.41;5023931;28;20042;-76
2024/01/10 07:59:39;;;;;;;2.10;2.00;;;;;;;-3.64;100.00;102189.91;5033931;28;20512;-76
2024/01/10 08:02:04;;;;;;;3.55;3.40;;;;;;;-3.56;100.00;102200.81;5026292;28;20075;-78
2024/01/10 08:04:30;;;;;;;1.95;1.85;;;;;;;-3.12;100.00;102308.06;5034526;28;20455;-78
2024/01/10 08:06:55;;;;;;;1.20;1.20;;;;;;;-3.74;100.00;102187.34;5027175;28;20061;-77
2024/01/10 08:09:23;;;;;;;0.60;0.60;;;;;;;-3.66;100.00;102199.16;5020844;28;20104;-76
2024/01/10 08:11:49;;;;;;;4.45;4.25;;;;;;;-3.28;100.00;102309.34;5029658;28;20038;-77
2024/01/10 08:14:15;;;;;;;2.17;2.08;;;;;;;-3.51;100.00;102188.38;5031001;28;20041;-78
2024/01/10 08:16:41;;;;;;;0.50;0.50;;;;;;;-2.74;100.00;102310.41;5029573;28;20044;-78
2024/01/10 08:19:07;;;;;;;1.15;1.15;;;;;;;-3.15;100.00;102194.84;5025417;28;20053;-76
2024/01/10 08:21:33;;;;;;;0.30;0.30;;;;;;;-2.97;100.00;102302.56;5036830;28;20103;-78
2024/01/10 08:23:59;;;;;;;5.45;5.15;;;;;;;-2.70;100.00;102304.78;5026083;28;20045;-76
2024/01/10 08:26:27;;;;;;;0.98;0.98;;;;;;;-2.56;100.00;102299.09;5028921;28;20055;-76
2024/01/10 08:28:52;;;;;;;2.05;1.95;;;;;;;-2.74;100.00;102305.28;5034101;28;20042;-76
2024/01/10 08:31:18;;;;;;;0.75;0.75;;;;;;;-3.27;100.00;102174.19;5028580;28;20041;-76
2024/01/10 08:33:44;;;;;;;1.63;1.55;;;;;;;-2.54;100.00;102295.00;5028088;28;20088;-77
2024/01/10 08:36:10;;;;;;;6.82;6.43;;;;;;;-2.63;100.00;102281.38;5035245;28;20061;-78
2024/01/10 08:38:37;;;;;;;0.65;0.65;;;;;;;-3.06;100.00;102181.13;5022864;28;20140;-76
2024/01/10 08:41:03;;;;;;;2.60;2.50;;;;;;;-2.44;100.00;102276.09;5037657;28;20116;-77
2024/01/10 08:43:29;;;;;;;0.32;0.32;;;;;;;-2.23;100.00;102301.00;5032510;28;20084;-77
2024/01/10 08:45:54;;;;;;;1.60;1.55;;;;;;;-3.02;100.00;102170.34;5022799;28;20555;-76
2024/01/10 08:48:20;;;;;;;4.47;4.15;;;;;;;-2.17;100.00;102314.34;5032043;28;20056;-77
2024/01/10 08:50:45;;;;;;;1.10;1.00;;;;;;;-2.63;100.00;102281.38;5036165;28;20835;-76
2024/01/10 08:53:11;;;;;;;1.20;1.20;;;;;;;-2.83;100.00;102190.72;5031433;28;20045;-77
2024/01/10 08:55:37;;;;;;;9.48;8.93;;;;;;;-2.73;100.00;102204.34;5012126;28;20029;-77
2024/01/10 08:58:03;;;;;;;5.40;4.97;;;;;;;-2.01;100.00;102300.19;5024594;28;20115;-77
2024/01/10 09:00:29;;;;;;;0.30;0.30;;;;;;;-2.06;100.00;102280.88;5029328;28;20079;-78
2024/01/10 09:02:55;;;;;;;6.10;5.78;;;;;;;-2.16;100.00;102292.09;5029667;28;20572;-77
2024/01/10 09:05:21;;;;;;;5.50;5.15;;;;;;;-2.11;100.00;102288.22;5030092;28;20068;-76
2024/01/10 09:07:47;;;;;;;0.95;0.95;;;;;;;-1.95;100.00;102298.09;5026110;28;20178;-77
2024/01/10 09:10:13;;;;;;;15.45;9.93;;;;;;;-2.13;100.00;102248.66;5027036;28;20192;-76
2024/01/10 09:12:39;;;;;;;0.80;0.80;;;;;;;-1.73;100.00;102299.06;5024594;28;20128;-77
2024/01/10 09:15:04;;;;;;;0.68;0.68;;;;;;;-2.43;100.00;102180.25;5030202;28;20061;-77
2024/01/10 09:17:31;;;;;;;0.50;0.50;;;;;;;-1.92;100.00;102242.66;5029769;28;20442;-76
2024/01/10 09:19:57;;;;;;;1.77;1.67;;;;;;;-1.98;100.00;102278.16;5027900;28;20803;-78
2024/01/10 09:22:23;;;;;;;2.25;2.15;;;;;;;-2.18;100.00;102203.66;5009764;28;20041;-76
2024/01/10 09:24:48;;;;;;;0.40;0.40;;;;;;;-1.91;100.00;102266.72;5028980;28;20500;-77
2024/01/10 09:27:14;;;;;;;3.70;3.50;;;;;;;-1.92;100.00;102229.81;5029802;28;20061;-77
2024/01/10 09:29:39;;;;;;;1.33;1.27;;;;;;;-2.18;100.00;102186.59;5028346;28;20085;-77
2024/01/10 09:32:05;;;;;;;0.38;0.38;;;;;;;-2.08;100.00;102252.50;5036009;28;20373;-77
2024/01/10 09:34:32;;;;;;;0.70;0.70;;;;;;;-2.40;100.00;102155.66;5033432;28;20103;-77
2024/01/10 09:36:57;;;;;;;2.08;1.95;;;;;;;-1.69;100.00;102241.00;5027730;28;20099;-77
2024/01/10 09:39:23;;;;;;;0.55;0.55;;;;;;;-1.65;100.00;102239.56;5013080;28;20485;-77
2024/01/10 09:41:50;;;;;;;0.52;0.52;;;;;;;-1.95;100.00;102157.50;5024146;28;20587;-75
2024/01/10 09:44:17;;;;;;;1.92;1.83;;;;;;;-2.08;100.00;102162.50;5023049;28;20029;-76
2024/01/10 09:46:52;;;;;;;0.38;0.38;;;;;;;-1.95;100.00;102185.81;5018777;28;20400;-77
2024/01/10 09:49:21;;;;;;;1.75;1.65;;;;;;;-1.74;100.00;102152.25;5013059;28;20424;-76
2024/01/10 09:51:48;;;;;;;0.30;0.30;;;;;;;-1.12;100.00;102214.53;5030021;28;20681;-76
2024/01/10 09:54:15;;;;;;;0.47;0.47;;;;;;;-1.92;100.00;102138.84;5011046;28;20065;-77
2024/01/10 09:56:42;;;;;;;4.25;4.03;;;;;;;-1.77;100.00;102195.78;5033772;28;20153;-76
2024/01/10 09:59:10;;;;;;;7.85;7.32;;;;;;;-1.94;100.00;102143.00;5031338;28;20607;-76
2024/01/10 10:01:40;;;;;;;0.30;0.30;;;;;;;-1.42;100.00;102193.34;5032577;28;20059;-77
2024/01/10 10:04:08;;;;;;;0.30;0.30;;;;;;;-1.32;100.00;102228.44;5034962;28;20045;-77
2024/01/10 10:06:34;;;;;;;0.40;0.40;;;;;;;-0.99;100.00;102227.53;5031349;28;20057;-77
2024/01/10 10:09:00;;;;;;;0.32;0.32;;;;;;;-1.65;100.00;102173.56;5025768;28;20049;-78
2024/01/10 10:11:26;;;;;;;0.40;0.40;;;;;;;-1.48;100.00;102149.13;5028963;28;20112;-77
2024/01/10 10:13:53;;;;;;;0.30;0.30;;;;;;;-1.05;100.00;102216.78;5029352;28;20100;-78
2024/01/10 10:16:26;;;;;;;0.40;0.40;;;;;;;-0.94;100.00;102227.88;5004083;28;20127;-77
2024/01/10 10:18:57;;;;;;;0.45;0.45;;;;;;;-1.83;100.00;102082.97;5028122;28;20045;-78
2024/01/10 10:21:27;;;;;;;0.70;0.70;;;;;;;-1.03;100.00;102217.78;5035263;28;20624;-77
2024/01/10 10:24:03;;;;;;;0.40;0.40;;;;;;;-0.72;100.00;102197.78;5013679;28;20102;-77
2024/01/10 10:26:32;;;;;;;1.00;1.00;;;;;;;-0.95;100.00;102107.59;5037328;28;20072;-78
2024/01/10 10:28:59;;;;;;;1.10;1.10;;;;;;;-0.67;100.00;102211.91;5032051;28;20037;-76
2024/01/10 10:31:26;;;;;;;1.35;1.00;;;;;;;-1.41;100.00;102097.31;5034534;28;20144;-76
2024/01/10 10:33:52;;;;;;;0.50;0.50;;;;;;;-1.25;100.00;102103.63;5028323;28;20550;-76
2024/01/10 10:36:20;;;;;;;3.40;2.15;;;;;;;-0.51;100.00;102208.81;5036385;28;20053;-75
2024/01/10 10:38:49;;;;;;;0.55;0.55;;;;;;;-0.68;100.00;102116.41;5012611;28;20056;-76
2024/01/10 10:41:15;;;;;;;0.40;0.40;;;;;;;-0.68;100.00;102101.88;5015281;28;20056;-77
2024/01/10 10:43:41;;;;;;;0.40;0.40;;;;;;;-0.02;100.00;102165.91;5023790;28;20036;-77
2024/01/10 10:46:12;;;;;;;0.32;0.32;;;;;;;-0.41;100.00;102174.25;5037447;28;20056;-77
2024/01/10 10:48:40;;;;;;;0.30;0.30;;;;;;;0.10;100.00;102183.94;5026504;28;20036;-78
2024/01/10 10:51:38;;;;;;;1.85;1.75;;;;;;;-0.28;98.55;102186.34;5032161;28;20434;-76
2024/01/10 10:54:09;;;;;;;0.95;0.95;;;;;;;0.02;99.58;102164.44;4991028;28;20603;-79
2024/01/10 10:56:37;;;;;;;0.60;0.60;;;;;;;0.17;100.00;102156.91;5030399;28;20095;-76
2024/01/10 10:59:04;;;;;;;0.60;0.60;;;;;;;-0.17;94.55;102078.78;5018840;28;20069;-78
2024/01/10 11:01:31;;;;;;;16.85;11.82;;;;;;;0.56;91.78;102108.78;5032945;28;20036;-76
2024/01/10 11:03:58;;;;;;;0.45;0.45;;;;;;;0.76;93.68;102071.38;5027022;28;20045;-79
2024/01/10 11:06:24;;;;;;;0.43;0.43;;;;;;;0.33;82.49;102051.31;5026148;28;20111;-78
2024/01/10 11:09:11;;;;;;;1.23;1.20;;;;;;;1.10;81.67;102107.19;5024039;28;20515;-76
2024/01/10 11:12:07;;;;;;;6.85;6.47;;;;;;;0.59;81.40;102067.69;5031167;28;20057;-77
2024/01/10 11:14:52;;;;;;;4.43;1.52;;;;;;;0.66;79.56;102056.97;5017153;28;20617;-76